Terminal Aerodrome Forecast
Issued by NWS

Home | Current Version | Previous Version | Text Only | Print | Product List | Glossary Off
Versions: 1 2 3 4 5 6 7 8 9 10 11 12 13 14 15 16 17 18 19 20 21 22 23 24 25 26 27

085
FTUS43 KABR 200957 AAB
TAFATY
TAF AMD
KATY 200957Z 2010/2106 17011KT P6SM BKN015
     FM201300 18016G24KT 4SM BR VCSH OVC015
     FM201500 20014G23KT 5SM -SHRA BR OVC015
     FM201700 26014G23KT P6SM BKN015
     FM201900 28016G24KT P6SM BKN040
     FM210100 27010KT P6SM FEW200=

USA.gov is the U.S. government's official web portal to all federal, state and local government web resources and services.